WIDD/BTH METAR and TAF weather

Enter ICAO airport designator
Station Type Date Time Source
WIDD METAR 2020/09/18 06:00 UTC NOAA

WIDD 180600Z 14006KT 9999 SCT014 32/23 Q1008 NOSIG


Station Type Date Time Source
WIDD Decoded METAR 2020/09/18 06:00 UTC NOAA

Station name not available
Sep 18, 2020 - 02:00 AM EDT / 2020.09.18 0600 UTC
Wind: from the SE (140 degrees) at 7 MPH (6 KT):0
Visibility: greater than 7 mile(s):0
Sky conditions: partly cloudy
Temperature: 89 F (32 C)
Heat index: 96.8 F (36.0 C):1
Dew Point: 73 F (23 C)
Relative Humidity: 59%
Pressure (altimeter): 29.77 in. Hg (1008 hPa)
ob: WIDD 180600Z 14006KT 9999 SCT014 32/23 Q1008 NOSIG
cycle: 6

Station Type Date Time Source
WIDD TAF 2020/09/18 06:00 UTC NOAA

TAF WIDD 180500Z 1806/1906 16008KT 9999 SCT014=

Example: see airport list